Terminal Aerodrome Forecast
Issued by NWS Louisville, KY

Home | Current Version | Previous Version | Text Only | Print | Product List | Glossary On
Versions: 1 2 3 4 5 6 7 8 9 10 11 12 13 14 15 16 17 18 19 20 21 22 23 24 25 26 27 28 29 30 31
000
FTUS43 KLMK 032300
TAFSDF
TAF
KSDF 032320Z 0400/0506 27005KT P6SM VCSH SCT015 BKN035
      TEMPO 0400/0401 4SM -SHRA BR
     FM040100 34005KT P6SM SCT035 BKN100
     FM040300 VRB03KT P6SM BKN035
     FM041400 03004KT P6SM BKN040=

USA.gov is the U.S. government's official web portal to all federal, state and local government web resources and services.